createdAt,value
2018-06-11T00:01:30.586Z,15.07
2018-06-11T00:03:58.804Z,14.63
2018-06-11T00:06:26.971Z,13.83
2018-06-11T00:08:55.158Z,12.07
2018-06-11T00:11:23.376Z,11.17
2018-06-11T00:13:51.653Z,13.73
2018-06-11T00:16:19.833Z,12.60
2018-06-11T00:18:48.117Z,12.70
2018-06-11T00:21:16.289Z,13.37
2018-06-11T00:23:44.458Z,12.13
2018-06-11T00:26:12.642Z,13.57
2018-06-11T00:28:40.840Z,11.73
2018-06-11T00:31:09.033Z,10.67
2018-06-11T00:33:37.195Z,11.83
2018-06-11T00:36:05.378Z,14.47
2018-06-11T00:38:33.579Z,12.80
2018-06-11T00:41:01.720Z,12.73
2018-06-11T00:43:29.862Z,11.00
2018-06-11T00:45:58.045Z,12.13
2018-06-11T00:48:26.290Z,11.13
2018-06-11T00:50:54.453Z,13.10
2018-06-11T00:53:22.606Z,11.27
2018-06-11T00:55:56.406Z,13.17
2018-06-11T00:58:24.649Z,13.23
2018-06-11T01:00:52.766Z,11.37
2018-06-11T01:03:21.032Z,11.27
2018-06-11T01:05:49.242Z,13.80
2018-06-11T01:08:17.439Z,13.03
2018-06-11T01:10:45.586Z,14.20
2018-06-11T01:13:13.909Z,11.23
2018-06-11T01:15:42.041Z,13.67
2018-06-11T01:18:10.186Z,20.27
2018-06-11T01:20:38.407Z,14.30
2018-06-11T01:23:06.596Z,14.67
2018-06-11T01:25:34.751Z,13.00
2018-06-11T01:28:02.983Z,12.17
2018-06-11T01:30:31.172Z,11.57
2018-06-11T01:32:59.343Z,13.93
2018-06-11T01:35:27.513Z,16.37
2018-06-11T01:37:55.679Z,12.47
2018-06-11T01:40:23.859Z,14.60
2018-06-11T01:42:52.013Z,14.53
2018-06-11T01:45:20.287Z,13.63
2018-06-11T01:47:48.457Z,15.20
2018-06-11T01:50:16.711Z,15.03
2018-06-11T01:52:44.837Z,13.90
2018-06-11T01:55:13.077Z,13.50
2018-06-11T01:57:41.307Z,12.13
2018-06-11T02:00:09.493Z,12.70
2018-06-11T02:02:37.755Z,13.33
2018-06-11T02:05:06.131Z,16.43
2018-06-11T02:07:34.305Z,12.53
2018-06-11T02:10:02.536Z,13.00
2018-06-11T02:12:30.699Z,12.63
2018-06-11T02:14:58.843Z,18.60
2018-06-11T02:17:26.997Z,12.80
2018-06-11T02:19:55.165Z,13.63
2018-06-11T02:22:23.318Z,19.90
2018-06-11T02:24:51.631Z,14.67
2018-06-11T02:27:19.786Z,19.40
2018-06-11T02:29:47.931Z,13.73
2018-06-11T02:32:16.088Z,11.80
2018-06-11T02:34:44.291Z,12.27
2018-06-11T02:37:12.510Z,13.67
2018-06-11T02:39:40.672Z,13.10
2018-06-11T02:42:08.889Z,11.70
2018-06-11T02:44:37.014Z,14.77
2018-06-11T02:47:05.201Z,13.87
2018-06-11T02:49:33.387Z,13.33
2018-06-11T02:52:02.186Z,16.07
2018-06-11T02:54:30.367Z,11.93
2018-06-11T02:56:58.519Z,14.23
2018-06-11T02:59:26.634Z,14.30
2018-06-11T03:01:54.797Z,13.67
2018-06-11T03:04:23.046Z,12.20
2018-06-11T03:06:51.285Z,12.93
2018-06-11T03:09:19.510Z,14.30
2018-06-11T03:11:47.697Z,14.50
2018-06-11T03:14:15.890Z,14.03
2018-06-11T03:16:44.167Z,11.70
2018-06-11T03:19:12.930Z,12.57
2018-06-11T03:21:41.094Z,14.80
2018-06-11T03:24:09.397Z,13.10
2018-06-11T03:26:37.546Z,13.37
2018-06-11T03:29:05.818Z,14.60
2018-06-11T03:31:34.002Z,20.40
2018-06-11T03:34:02.210Z,12.30
2018-06-11T03:36:30.378Z,14.70
2018-06-11T03:38:58.598Z,13.93
2018-06-11T03:41:26.782Z,12.67
2018-06-11T03:43:54.902Z,15.90
2018-06-11T03:46:23.058Z,13.13
2018-06-11T03:48:51.200Z,12.80
2018-06-11T03:51:19.348Z,13.17
2018-06-11T03:53:47.509Z,16.67
2018-06-11T03:56:15.748Z,12.80
2018-06-11T03:58:43.923Z,14.80
2018-06-11T04:01:12.188Z,15.23
2018-06-11T04:03:40.354Z,14.23
2018-06-11T04:06:08.470Z,17.73
2018-06-11T04:08:36.722Z,14.97
2018-06-11T04:11:04.935Z,13.97
2018-06-11T04:13:33.008Z,12.70
2018-06-11T04:16:01.180Z,14.73
2018-06-11T04:18:29.391Z,13.63
2018-06-11T04:20:57.550Z,13.90
2018-06-11T04:23:25.723Z,14.73
2018-06-11T04:25:53.887Z,13.63
2018-06-11T04:28:22.190Z,13.93
2018-06-11T04:30:50.391Z,14.13
2018-06-11T04:33:18.555Z,13.67
2018-06-11T04:35:46.701Z,12.77
2018-06-11T04:38:15.792Z,14.17
2018-06-11T04:40:43.993Z,14.63
2018-06-11T04:43:12.149Z,13.80
2018-06-11T04:45:40.372Z,17.30
2018-06-11T04:48:08.555Z,13.13
2018-06-11T04:50:36.686Z,15.77
2018-06-11T04:53:04.983Z,14.43
2018-06-11T04:55:33.125Z,15.10
2018-06-11T04:58:01.325Z,14.87
2018-06-11T05:00:29.547Z,14.77
2018-06-11T05:02:57.737Z,14.33
2018-06-11T05:05:25.868Z,15.23
2018-06-11T05:07:54.141Z,18.27
2018-06-11T05:10:22.357Z,14.57
2018-06-11T05:12:50.605Z,15.57
2018-06-11T05:15:18.993Z,20.37
2018-06-11T05:17:47.129Z,17.17
2018-06-11T05:20:15.640Z,16.93
2018-06-11T05:22:43.837Z,15.03
2018-06-11T05:25:12.113Z,14.70
2018-06-11T05:27:40.294Z,13.83
2018-06-11T05:30:08.537Z,15.30
2018-06-11T05:32:36.682Z,13.33
2018-06-11T05:35:05.018Z,13.63
2018-06-11T05:37:33.193Z,15.83
2018-06-11T05:40:01.362Z,12.90
2018-06-11T05:42:29.533Z,12.13
2018-06-11T05:44:57.697Z,13.77
2018-06-11T05:47:26.191Z,12.73
2018-06-11T05:49:54.615Z,12.70
2018-06-11T05:52:23.305Z,13.13
2018-06-11T05:54:51.503Z,11.77
2018-06-11T05:57:19.724Z,12.67
2018-06-11T05:59:47.952Z,12.00
2018-06-11T06:02:16.124Z,11.40
2018-06-11T06:04:44.327Z,11.47
2018-06-11T06:07:12.581Z,12.73
2018-06-11T06:09:40.735Z,12.73
2018-06-11T06:12:08.986Z,11.67
2018-06-11T06:14:37.168Z,10.77
2018-06-11T06:17:05.474Z,11.20
2018-06-11T06:19:34.277Z,12.13
2018-06-11T06:22:02.515Z,12.30
2018-06-11T06:24:30.686Z,10.97
2018-06-11T06:26:58.920Z,13.13
2018-06-11T06:29:27.032Z,11.07
2018-06-11T06:31:55.238Z,11.77
2018-06-11T06:34:25.465Z,10.57
2018-06-11T06:36:54.514Z,11.77
2018-06-11T06:39:23.182Z,12.47
2018-06-11T06:41:52.110Z,10.60
2018-06-11T06:47:07.363Z,13.73
2018-06-11T06:49:36.539Z,11.03
2018-06-11T06:54:47.267Z,12.43
2018-06-11T06:57:44.923Z,13.23
2018-06-11T07:00:13.105Z,14.63
2018-06-11T07:02:41.615Z,12.07
2018-06-11T07:05:09.815Z,11.30
2018-06-11T07:07:39.257Z,10.97
2018-06-11T07:10:07.411Z,10.07
2018-06-11T07:12:35.653Z,10.10
2018-06-11T07:15:04.125Z,10.43
2018-06-11T07:17:32.279Z,10.10
2018-06-11T07:20:03.233Z,11.27
2018-06-11T07:22:31.389Z,9.80
2018-06-11T07:24:59.537Z,13.60
2018-06-11T07:27:27.763Z,10.20
2018-06-11T07:29:55.925Z,11.20
2018-06-11T07:32:24.199Z,10.87
2018-06-11T07:34:52.419Z,10.93
2018-06-11T07:37:26.053Z,11.70
2018-06-11T07:39:55.037Z,13.57
2018-06-11T07:42:23.183Z,11.40
2018-06-11T07:44:51.395Z,11.83
2018-06-11T07:47:19.577Z,12.30
2018-06-11T07:49:47.726Z,11.07
2018-06-11T07:52:15.913Z,11.93
2018-06-11T07:54:44.112Z,13.30
2018-06-11T07:57:12.265Z,11.23
2018-06-11T07:59:40.414Z,12.90
2018-06-11T08:02:08.658Z,11.30
2018-06-11T08:04:36.830Z,11.47
2018-06-11T08:07:05.060Z,11.20
2018-06-11T08:09:33.228Z,11.10
2018-06-11T08:12:01.542Z,11.80
2018-06-11T08:14:29.829Z,13.17
2018-06-11T08:16:57.990Z,11.97
2018-06-11T08:19:26.202Z,11.70
2018-06-11T08:21:54.387Z,13.53
2018-06-11T08:24:22.606Z,11.67
2018-06-11T08:26:50.804Z,12.77
2018-06-11T08:29:18.950Z,13.43
2018-06-11T08:31:47.171Z,12.07
2018-06-11T08:34:15.682Z,13.57
2018-06-11T08:36:43.820Z,12.60
2018-06-11T08:39:12.050Z,12.43
2018-06-11T08:41:40.221Z,12.87
2018-06-11T08:44:08.398Z,12.73
2018-06-11T08:46:36.630Z,12.47
2018-06-11T08:49:04.911Z,12.30
2018-06-11T08:51:33.076Z,16.17
2018-06-11T08:54:01.268Z,12.53
2018-06-11T08:56:29.446Z,11.73
2018-06-11T08:58:57.590Z,12.57
2018-06-11T09:01:25.852Z,12.93
2018-06-11T09:03:54.259Z,13.60
2018-06-11T09:06:23.366Z,13.27
2018-06-11T09:08:51.572Z,12.83
2018-06-11T09:11:20.259Z,14.00
2018-06-11T09:13:48.568Z,12.80
2018-06-11T09:16:16.782Z,13.97
2018-06-11T09:18:45.706Z,12.73
2018-06-11T09:21:13.922Z,12.87
2018-06-11T09:23:42.112Z,12.67
2018-06-11T09:26:10.672Z,16.20
2018-06-11T09:28:38.944Z,14.70
2018-06-11T09:31:07.133Z,13.00
2018-06-11T09:33:35.281Z,12.57
2018-06-11T09:36:04.554Z,14.60
2018-06-11T09:38:32.891Z,17.23
2018-06-11T09:41:01.947Z,13.50
2018-06-11T09:43:30.089Z,13.53
2018-06-11T09:46:00.503Z,15.13
2018-06-11T09:48:28.875Z,13.33
2018-06-11T09:50:57.521Z,15.60
2018-06-11T09:53:25.689Z,14.20
2018-06-11T09:55:53.845Z,14.83
2018-06-11T09:58:22.077Z,14.80
2018-06-11T10:00:50.341Z,11.27
2018-06-11T10:03:18.485Z,11.43
2018-06-11T10:05:46.641Z,12.33
2018-06-11T10:08:15.329Z,11.90
2018-06-11T10:10:43.496Z,12.20
2018-06-11T10:13:11.700Z,12.37
2018-06-11T10:15:39.985Z,13.70
2018-06-11T10:21:04.702Z,11.87
2018-06-11T10:26:20.809Z,11.00
2018-06-11T10:28:48.971Z,10.83
2018-06-11T10:31:17.145Z,14.20
2018-06-11T10:33:45.325Z,12.13
2018-06-11T10:36:13.481Z,11.00
2018-06-11T10:38:41.661Z,9.27
2018-06-11T10:41:12.519Z,11.27
2018-06-11T10:43:40.674Z,10.80
2018-06-11T10:46:08.853Z,11.30
2018-06-11T10:48:37.057Z,9.57
2018-06-11T10:51:05.229Z,12.93
2018-06-11T10:53:33.431Z,11.53
2018-06-11T10:56:01.638Z,11.10
2018-06-11T10:58:29.813Z,10.00
2018-06-11T11:00:58.087Z,12.40
2018-06-11T11:03:26.643Z,9.37
2018-06-11T11:05:54.770Z,10.10
2018-06-11T11:08:23.350Z,9.10
2018-06-11T11:10:52.133Z,8.67
2018-06-11T11:13:20.279Z,8.93
2018-06-11T11:15:48.452Z,9.13
2018-06-11T11:18:16.629Z,8.10
2018-06-11T11:20:44.800Z,7.33
2018-06-11T11:23:12.966Z,7.23
2018-06-11T11:25:41.170Z,9.40
2018-06-11T11:28:09.420Z,14.40
2018-06-11T11:30:37.573Z,9.00
2018-06-11T11:33:06.594Z,10.27
2018-06-11T11:35:34.787Z,9.20
2018-06-11T11:38:02.996Z,10.13
2018-06-11T11:40:31.222Z,9.07
2018-06-11T11:42:59.362Z,12.07
2018-06-11T11:45:27.842Z,10.30
2018-06-11T11:47:56.030Z,9.70
2018-06-11T11:50:24.140Z,9.60
2018-06-11T11:52:52.276Z,9.93
2018-06-11T11:55:21.187Z,9.30
2018-06-11T11:57:49.353Z,8.97
2018-06-11T12:00:18.137Z,12.87
2018-06-11T12:02:46.281Z,9.57
2018-06-11T12:05:15.253Z,11.47
2018-06-11T12:07:43.514Z,9.53
2018-06-11T12:10:11.696Z,10.10
2018-06-11T12:12:39.907Z,10.00
2018-06-11T12:15:08.177Z,9.00
2018-06-11T12:17:36.325Z,9.37
2018-06-11T12:20:04.571Z,9.53
2018-06-11T12:22:32.741Z,9.87
2018-06-11T12:25:00.921Z,9.30
2018-06-11T12:27:29.095Z,12.87
2018-06-11T12:29:57.256Z,11.73
2018-06-11T12:32:25.401Z,9.60
2018-06-11T12:34:53.569Z,10.07
2018-06-11T12:37:21.807Z,10.10
2018-06-11T12:39:49.963Z,9.63
2018-06-11T12:42:18.163Z,8.63
2018-06-11T12:44:46.321Z,9.43
2018-06-11T12:47:14.557Z,9.80
2018-06-11T12:49:42.913Z,9.63
2018-06-11T12:52:11.046Z,8.20
2018-06-11T12:54:39.370Z,10.03
2018-06-11T12:57:07.534Z,7.60
2018-06-11T12:59:35.681Z,10.33
2018-06-11T13:02:03.997Z,11.77
2018-06-11T13:04:32.213Z,9.73
2018-06-11T13:07:00.848Z,8.30
2018-06-11T13:09:30.697Z,7.90
2018-06-11T13:12:00.122Z,8.70
2018-06-11T13:14:28.383Z,9.90
2018-06-11T13:16:56.595Z,8.13
2018-06-11T13:19:24.917Z,7.53
2018-06-11T13:21:53.217Z,7.53
2018-06-11T13:24:21.466Z,7.70
2018-06-11T13:26:49.702Z,7.17
2018-06-11T13:29:17.857Z,7.10
2018-06-11T13:31:45.996Z,7.97
2018-06-11T13:34:14.118Z,8.00
2018-06-11T13:36:42.354Z,7.37
2018-06-11T13:39:10.564Z,7.53
2018-06-11T13:41:38.759Z,7.97
2018-06-11T13:44:06.905Z,6.70
2018-06-11T13:46:36.034Z,6.80
2018-06-11T13:49:04.326Z,8.30
2018-06-11T13:51:32.530Z,7.43
2018-06-11T13:54:00.701Z,9.60
2018-06-11T13:56:29.051Z,6.90
2018-06-11T13:58:57.212Z,8.20
2018-06-11T14:01:25.546Z,8.20
2018-06-11T14:03:53.729Z,6.47
2018-06-11T14:06:21.917Z,6.87
2018-06-11T14:08:50.133Z,6.20
2018-06-11T14:11:18.250Z,7.67
2018-06-11T14:13:46.410Z,17.53
2018-06-11T14:16:14.616Z,8.87
2018-06-11T14:18:42.744Z,6.50
2018-06-11T14:21:10.918Z,7.50
2018-06-11T14:23:39.214Z,6.10
2018-06-11T14:26:07.375Z,7.70
2018-06-11T14:28:35.637Z,6.57
2018-06-11T14:31:03.802Z,7.90
2018-06-11T14:33:31.986Z,7.63
2018-06-11T14:36:00.123Z,7.23
2018-06-11T14:38:28.474Z,7.53
2018-06-11T14:40:56.742Z,7.80
2018-06-11T14:43:25.037Z,6.17
2018-06-11T14:45:53.224Z,6.53
2018-06-11T14:48:21.418Z,6.90
2018-06-11T14:50:49.587Z,8.00
2018-06-11T14:53:17.782Z,7.03
2018-06-11T14:55:45.953Z,7.83
2018-06-11T14:58:15.241Z,6.07
2018-06-11T15:00:43.418Z,7.47
2018-06-11T15:03:11.623Z,8.73
2018-06-11T15:05:39.835Z,8.03
2018-06-11T15:08:08.027Z,6.47
2018-06-11T15:10:36.263Z,5.37
2018-06-11T15:13:04.502Z,9.73
2018-06-11T15:15:32.759Z,8.80
2018-06-11T15:18:00.976Z,9.40
2018-06-11T15:20:29.233Z,6.83
2018-06-11T15:22:57.415Z,8.60
2018-06-11T15:25:25.665Z,7.20
2018-06-11T15:27:53.855Z,7.90
2018-06-11T15:30:22.137Z,6.67
2018-06-11T15:32:50.343Z,6.20
2018-06-11T15:35:18.740Z,7.90
2018-06-11T15:37:47.053Z,8.30
2018-06-11T15:40:15.477Z,8.37
2018-06-11T15:42:43.703Z,7.37
2018-06-11T15:45:12.091Z,9.63
2018-06-11T15:47:40.300Z,7.70
2018-06-11T15:50:08.482Z,8.60
2018-06-11T15:52:36.791Z,8.57
2018-06-11T15:55:06.425Z,7.37
2018-06-11T15:57:34.643Z,9.13
2018-06-11T16:00:03.544Z,7.87
2018-06-11T16:02:32.696Z,10.67
2018-06-11T16:05:00.939Z,6.87
2018-06-11T16:07:39.079Z,7.13
2018-06-11T16:10:07.930Z,6.30
2018-06-11T16:12:43.125Z,9.10
2018-06-11T16:15:11.363Z,7.07
2018-06-11T16:17:39.518Z,6.60
2018-06-11T16:20:07.657Z,7.97
2018-06-11T16:22:35.872Z,7.67
2018-06-11T16:25:04.113Z,6.47
2018-06-11T16:27:32.271Z,8.67
2018-06-11T16:30:00.512Z,5.53
2018-06-11T16:32:28.722Z,5.70
2018-06-11T16:34:57.033Z,6.87
2018-06-11T16:37:25.577Z,6.30
2018-06-11T16:39:54.025Z,7.23
2018-06-11T16:42:23.073Z,5.93
2018-06-11T16:44:51.322Z,5.37
2018-06-11T16:47:19.561Z,8.20
2018-06-11T16:49:47.820Z,7.10
2018-06-11T16:52:16.619Z,6.13
2018-06-11T16:54:44.777Z,6.30
2018-06-11T16:57:13.051Z,7.50
2018-06-11T16:59:41.339Z,5.73
2018-06-11T17:02:09.482Z,7.73
2018-06-11T17:04:37.797Z,5.47
2018-06-11T17:07:06.138Z,6.23
2018-06-11T17:09:34.321Z,5.77
2018-06-11T17:12:02.514Z,6.30
2018-06-11T17:14:30.693Z,6.13
2018-06-11T17:16:58.927Z,7.80
2018-06-11T17:19:27.102Z,7.53
2018-06-11T17:21:55.418Z,6.80
2018-06-11T17:24:24.018Z,8.03
2018-06-11T17:26:52.313Z,7.73
2018-06-11T17:29:20.650Z,7.10
2018-06-11T17:31:48.968Z,6.20
2018-06-11T17:34:17.161Z,8.07
2018-06-11T17:36:45.356Z,7.33
2018-06-11T17:39:13.498Z,7.97
2018-06-11T17:41:41.678Z,6.47
2018-06-11T17:44:09.851Z,6.00
2018-06-11T17:46:38.065Z,6.00
2018-06-11T17:49:06.238Z,6.23
2018-06-11T17:51:34.468Z,6.80
2018-06-11T17:54:02.641Z,8.13
2018-06-11T17:56:30.970Z,6.63
2018-06-11T17:58:59.189Z,6.20
2018-06-11T18:01:27.566Z,6.93
2018-06-11T18:03:55.784Z,5.80
2018-06-11T18:06:24.032Z,8.30
2018-06-11T18:08:52.210Z,7.63
2018-06-11T18:11:20.362Z,7.37
2018-06-11T18:13:48.564Z,7.33
2018-06-11T18:16:16.835Z,7.77
2018-06-11T18:18:45.055Z,5.83
2018-06-11T18:21:13.561Z,9.53
2018-06-11T18:23:41.773Z,8.70
2018-06-11T18:26:09.974Z,10.57
2018-06-11T18:28:38.265Z,8.33
2018-06-11T18:31:09.874Z,11.27
2018-06-11T18:33:38.161Z,9.30
2018-06-11T18:36:06.452Z,8.87
2018-06-11T18:38:34.940Z,8.00
2018-06-11T18:41:03.494Z,9.23
2018-06-11T18:43:31.666Z,6.63
2018-06-11T18:45:59.826Z,6.10
2018-06-11T18:48:28.010Z,7.47
2018-06-11T18:50:56.265Z,6.67
2018-06-11T18:53:24.442Z,7.77
2018-06-11T18:55:57.540Z,10.63
2018-06-11T18:58:35.468Z,7.90
2018-06-11T19:01:03.757Z,7.73
2018-06-11T19:03:32.370Z,9.00
2018-06-11T19:06:03.358Z,7.37
2018-06-11T19:08:31.753Z,8.10
2018-06-11T19:10:59.866Z,6.73
2018-06-11T19:13:28.024Z,6.60
2018-06-11T19:15:56.357Z,6.40
2018-06-11T19:18:25.435Z,7.77
2018-06-11T19:20:53.597Z,6.70
2018-06-11T19:23:21.763Z,9.10
2018-06-11T19:25:49.924Z,7.50
2018-06-11T19:28:18.270Z,6.77
2018-06-11T19:30:46.487Z,6.50
2018-06-11T19:33:15.607Z,6.97
2018-06-11T19:35:43.957Z,6.80
2018-06-11T19:38:12.229Z,7.63
2018-06-11T19:40:40.490Z,6.53
2018-06-11T19:43:08.670Z,9.87
2018-06-11T19:45:37.189Z,7.97
2018-06-11T19:48:05.403Z,6.90
2018-06-11T19:50:33.569Z,7.63
2018-06-11T19:53:01.744Z,6.90
2018-06-11T19:55:33.457Z,7.83
2018-06-11T19:58:01.697Z,7.43
2018-06-11T20:00:29.856Z,6.67
2018-06-11T20:02:58.169Z,8.10
2018-06-11T20:05:26.341Z,8.83
2018-06-11T20:07:54.499Z,8.03
2018-06-11T20:10:22.880Z,7.60
2018-06-11T20:12:51.098Z,6.40
2018-06-11T20:15:20.221Z,8.23
2018-06-11T20:17:48.810Z,7.90
2018-06-11T20:20:18.279Z,9.27
2018-06-11T20:22:46.490Z,8.17
2018-06-11T20:25:14.846Z,7.47
2018-06-11T20:27:43.019Z,9.03
2018-06-11T20:30:11.166Z,9.53
2018-06-11T20:32:39.348Z,7.80
2018-06-11T20:35:07.778Z,9.37
2018-06-11T20:37:35.976Z,9.50
2018-06-11T20:40:04.666Z,7.93
2018-06-11T20:42:33.022Z,8.73
2018-06-11T20:45:01.238Z,7.13
2018-06-11T20:47:29.480Z,8.90
2018-06-11T20:49:57.774Z,9.97
2018-06-11T20:52:26.209Z,9.37
2018-06-11T20:54:54.412Z,10.57
2018-06-11T20:57:28.887Z,7.57
2018-06-11T20:59:57.697Z,8.10
2018-06-11T21:02:28.002Z,10.03
2018-06-11T21:04:56.202Z,8.80
2018-06-11T21:10:23.552Z,7.97
2018-06-11T21:15:36.820Z,9.17
2018-06-11T21:18:05.070Z,8.63
2018-06-11T21:20:33.220Z,12.17
2018-06-11T21:23:01.765Z,10.30
2018-06-11T21:25:29.935Z,12.27
2018-06-11T21:27:58.125Z,9.43
2018-06-11T21:30:26.317Z,12.93
2018-06-11T21:32:56.456Z,8.83
2018-06-11T21:35:25.841Z,12.17
2018-06-11T21:37:54.017Z,9.33
2018-06-11T21:40:22.157Z,10.10
2018-06-11T21:42:50.765Z,12.70
2018-06-11T21:45:19.414Z,9.93
2018-06-11T21:47:47.638Z,10.13
2018-06-11T21:50:17.832Z,9.23
2018-06-11T21:52:46.699Z,9.57
2018-06-11T21:55:14.841Z,11.27
2018-06-11T21:57:43.535Z,10.60
2018-06-11T22:00:11.671Z,13.37
2018-06-11T22:02:39.849Z,10.30
2018-06-11T22:05:08.075Z,10.30
2018-06-11T22:07:36.355Z,10.10
2018-06-11T22:10:04.543Z,12.10
2018-06-11T22:12:32.813Z,11.83
2018-06-11T22:15:00.937Z,13.30
2018-06-11T22:17:29.133Z,13.70
2018-06-11T22:19:57.265Z,12.30
2018-06-11T22:22:25.449Z,13.00
2018-06-11T22:24:53.629Z,13.07
2018-06-11T22:27:21.754Z,11.50
2018-06-11T22:29:49.983Z,14.10
2018-06-11T22:32:18.184Z,14.60
2018-06-11T22:34:46.365Z,12.77
2018-06-11T22:37:14.523Z,12.07
2018-06-11T22:39:42.677Z,13.53
2018-06-11T22:42:10.932Z,12.20
2018-06-11T22:44:39.145Z,11.37
2018-06-11T22:47:07.305Z,11.07
2018-06-11T22:49:35.494Z,11.73
2018-06-11T22:52:03.781Z,14.23
2018-06-11T22:54:31.921Z,11.77
2018-06-11T22:57:00.161Z,13.97
2018-06-11T22:59:28.327Z,12.23
2018-06-11T23:01:56.502Z,11.77
2018-06-11T23:04:24.629Z,10.53
2018-06-11T23:06:52.810Z,12.47
2018-06-11T23:09:21.097Z,13.20
2018-06-11T23:11:49.229Z,14.27
2018-06-11T23:14:18.049Z,12.80
2018-06-11T23:16:46.289Z,13.20
2018-06-11T23:19:14.432Z,14.53
2018-06-11T23:21:42.554Z,13.53
2018-06-11T23:24:10.698Z,14.30
2018-06-11T23:26:38.842Z,11.73
2018-06-11T23:29:07.018Z,11.67
2018-06-11T23:31:35.161Z,12.00
2018-06-11T23:34:04.866Z,12.90
2018-06-11T23:36:33.178Z,13.90
2018-06-11T23:39:01.344Z,11.70
2018-06-11T23:41:29.510Z,12.37
2018-06-11T23:43:58.573Z,11.90
2018-06-11T23:46:26.752Z,12.67
2018-06-11T23:48:54.931Z,11.37
2018-06-11T23:51:23.054Z,10.70
2018-06-11T23:53:51.235Z,11.93
2018-06-11T23:56:19.375Z,13.93
2018-06-11T23:58:47.637Z,11.57
